Time;durP1;ratioP1;P1;durP2;ratioP2;P2;SDS_P1;SDS_P2;PMS_P1;PMS_P2;Temp;Humidity;BMP_temperature;BMP_pressure;BME280_temperature;BME280_humidity;BME280_pressure;Samples;Min_cycle;Max_cycle;Signal;HPM_P1;HPM_P2
2021/06/26 00:02:11;;;;;;;43.45;32.13;;;17.20;99.90;;;;;;5054884;28;20055;-68
2021/06/26 00:04:40;;;;;;;41.38;32.30;;;17.20;99.90;;;;;;5054654;28;20404;-68
2021/06/26 00:07:06;;;;;;;44.33;33.63;;;17.20;99.90;;;;;;5055065;28;20044;-68
2021/06/26 00:09:31;;;;;;;44.72;33.15;;;17.20;99.90;;;;;;5054035;28;20041;-68
2021/06/26 00:11:57;;;;;;;47.60;31.42;;;17.20;99.90;;;;;;5054414;28;20041;-69
2021/06/26 00:14:23;;;;;;;47.15;34.38;;;17.10;99.90;;;;;;5054462;28;20447;-69
2021/06/26 00:16:49;;;;;;;44.50;33.38;;;17.10;99.90;;;;;;5054636;28;20133;-69
2021/06/26 00:19:14;;;;;;;46.80;34.78;;;17.10;99.90;;;;;;5053979;28;20123;-69
2021/06/26 00:21:40;;;;;;;46.88;36.33;;;17.10;99.90;;;;;;5054748;28;20093;-69
2021/06/26 00:24:06;;;;;;;48.95;36.92;;;17.10;99.90;;;;;;5054294;28;20489;-69
2021/06/26 00:26:32;;;;;;;47.70;35.72;;;17.10;99.90;;;;;;5054223;28;20045;-69
2021/06/26 00:28:58;;;;;;;48.55;37.25;;;17.10;99.90;;;;;;5053877;28;20115;-69
2021/06/26 00:31:24;;;;;;;51.00;37.67;;;17.10;99.90;;;;;;5054008;28;20385;-69
2021/06/26 00:33:49;;;;;;;50.78;37.75;;;17.00;99.90;;;;;;5054158;28;20116;-69
2021/06/26 00:36:15;;;;;;;54.42;38.88;;;17.10;99.90;;;;;;5054142;28;20374;-69
2021/06/26 00:38:41;;;;;;;55.20;40.05;;;17.00;99.90;;;;;;5053823;28;20393;-69
2021/06/26 00:41:06;;;;;;;57.17;40.78;;;17.10;99.90;;;;;;5053947;28;20045;-69
2021/06/26 00:43:32;;;;;;;56.13;39.67;;;17.00;99.90;;;;;;5054329;28;20029;-69
2021/06/26 00:45:59;;;;;;;58.92;42.17;;;17.00;99.90;;;;;;5053990;28;20394;-69
2021/06/26 00:48:25;;;;;;;58.10;40.53;;;17.00;99.90;;;;;;5053847;28;20066;-69
2021/06/26 00:50:51;;;;;;;53.45;39.53;;;17.00;99.90;;;;;;5053436;28;20032;-69
2021/06/26 00:53:17;;;;;;;54.05;38.65;;;17.00;99.90;;;;;;5054092;28;20728;-69
2021/06/26 00:55:51;;;;;;;66.28;43.80;;;17.00;99.90;;;;;;5053919;28;20037;-68
2021/06/26 00:58:19;;;;;;;56.20;39.92;;;17.00;99.90;;;;;;5053982;28;20045;-68
2021/06/26 01:00:45;;;;;;;54.17;39.85;;;16.90;99.90;;;;;;5053379;28;20044;-68
2021/06/26 01:03:10;;;;;;;56.08;39.42;;;17.00;99.90;;;;;;5053547;28;20041;-69
2021/06/26 01:05:36;;;;;;;61.13;41.67;;;17.00;99.90;;;;;;5053716;28;20094;-68
2021/06/26 01:08:02;;;;;;;57.70;40.40;;;17.00;99.90;;;;;;5052933;28;20041;-68
2021/06/26 01:10:34;;;;;;;60.33;41.60;;;17.10;99.90;;;;;;5053116;28;20090;-69
2021/06/26 01:13:00;;;;;;;53.45;38.70;;;17.00;99.90;;;;;;5053547;28;20045;-69
2021/06/26 01:15:26;;;;;;;57.00;40.58;;;17.10;99.90;;;;;;5053551;28;20033;-68
2021/06/26 01:17:52;;;;;;;56.85;39.92;;;17.00;99.90;;;;;;5053690;28;20075;-69
2021/06/26 01:20:18;;;;;;;54.88;39.40;;;17.10;99.90;;;;;;5052582;28;20037;-69
2021/06/26 01:22:46;;;;;;;52.28;37.88;;;17.10;99.90;;;;;;5053380;28;20420;-69
2021/06/26 01:25:14;;;;;;;56.53;39.53;;;17.10;99.90;;;;;;5053453;28;20449;-69
2021/06/26 01:27:41;;;;;;;49.60;36.40;;;17.10;99.90;;;;;;5053279;28;20507;-69
2021/06/26 01:30:08;;;;;;;53.00;39.63;;;17.10;99.90;;;;;;5053140;28;20049;-69
2021/06/26 01:32:35;;;;;;;53.08;38.78;;;17.10;99.90;;;;;;5053044;28;20463;-69
2021/06/26 01:35:01;;;;;;;49.95;36.95;;;17.10;99.90;;;;;;5053220;28;20069;-69
2021/06/26 01:37:26;;;;;;;50.83;35.80;;;17.10;99.90;;;;;;5053203;28;20116;-69
2021/06/26 01:39:52;;;;;;;50.72;36.90;;;17.10;99.90;;;;;;5052736;28;20120;-69
2021/06/26 01:42:18;;;;;;;50.95;37.30;;;17.10;99.90;;;;;;5053332;28;20049;-69
2021/06/26 01:44:43;;;;;;;50.67;37.05;;;17.10;99.90;;;;;;5053072;28;20060;-68
2021/06/26 01:47:09;;;;;;;51.55;36.33;;;17.10;99.90;;;;;;5053476;28;20044;-68
2021/06/26 01:49:38;;;;;;;46.05;35.08;;;17.10;99.90;;;;;;5052814;28;20112;-68
2021/06/26 01:52:04;;;;;;;46.03;34.80;;;17.10;99.90;;;;;;5053342;28;20049;-68
2021/06/26 01:54:31;;;;;;;45.20;34.67;;;17.10;99.90;;;;;;5053278;28;20037;-68
2021/06/26 01:56:56;;;;;;;45.78;33.88;;;17.10;99.90;;;;;;5052906;28;20061;-68
2021/06/26 01:59:22;;;;;;;45.03;33.17;;;17.10;99.90;;;;;;5052805;28;20516;-68
2021/06/26 02:01:48;;;;;;;46.22;34.45;;;17.00;99.90;;;;;;5053206;28;20041;-68
2021/06/26 02:04:14;;;;;;;50.30;35.97;;;17.00;99.90;;;;;;5053402;28;20045;-68
2021/06/26 02:06:39;;;;;;;46.80;34.80;;;17.00;99.90;;;;;;5053427;28;20040;-68
2021/06/26 02:09:07;;;;;;;49.40;34.50;;;17.00;99.90;;;;;;5052808;28;20053;-68
2021/06/26 02:11:36;;;;;;;51.92;38.25;;;17.00;99.90;;;;;;5052953;28;20037;-68
2021/06/26 02:14:01;;;;;;;48.28;36.05;;;17.00;99.90;;;;;;5053103;28;20043;-69
2021/06/26 02:16:28;;;;;;;50.40;37.33;;;17.00;99.90;;;;;;5052740;28;20489;-68
2021/06/26 02:18:54;;;;;;;49.80;35.70;;;17.00;99.90;;;;;;5052691;28;20047;-69
2021/06/26 02:21:20;;;;;;;46.72;34.25;;;16.90;99.90;;;;;;5052834;28;20069;-69
2021/06/26 02:23:46;;;;;;;48.55;35.83;;;17.00;99.90;;;;;;5052988;28;20044;-68
2021/06/26 02:26:12;;;;;;;45.47;33.88;;;17.00;99.90;;;;;;5052646;28;20468;-68
2021/06/26 02:28:38;;;;;;;53.28;38.67;;;17.00;99.90;;;;;;5052352;28;20053;-69
2021/06/26 02:31:03;;;;;;;50.33;36.88;;;17.00;99.90;;;;;;5052867;28;20048;-68
2021/06/26 02:33:29;;;;;;;51.33;37.72;;;16.90;99.90;;;;;;5055516;28;20451;-68
2021/06/26 02:35:55;;;;;;;51.05;36.72;;;16.90;99.90;;;;;;5056798;28;20462;-68
2021/06/26 02:38:21;;;;;;;48.78;35.72;;;16.90;99.90;;;;;;5056524;28;20457;-68
2021/06/26 02:40:46;;;;;;;49.30;35.90;;;16.90;99.90;;;;;;5056231;28;20462;-68
2021/06/26 02:43:12;;;;;;;47.45;35.00;;;16.80;99.90;;;;;;5055390;28;20033;-69
2021/06/26 02:45:37;;;;;;;47.15;36.63;;;16.90;99.90;;;;;;5056625;28;20043;-68
2021/06/26 02:48:05;;;;;;;48.63;36.47;;;16.80;99.90;;;;;;5056602;28;20102;-68
2021/06/26 02:50:31;;;;;;;54.22;37.50;;;16.80;99.90;;;;;;5055732;28;20102;-68
2021/06/26 02:52:56;;;;;;;47.55;36.50;;;16.80;99.90;;;;;;5056011;28;20037;-68
2021/06/26 02:55:22;;;;;;;50.38;35.55;;;16.80;99.90;;;;;;5055952;28;20401;-68
2021/06/26 02:57:48;;;;;;;49.58;35.03;;;16.90;99.90;;;;;;5056161;28;20037;-68
2021/06/26 03:00:14;;;;;;;50.53;36.53;;;16.80;99.90;;;;;;5055375;28;20037;-68
2021/06/26 03:02:40;;;;;;;50.80;37.67;;;16.80;99.90;;;;;;5056297;28;20037;-68
2021/06/26 03:05:07;;;;;;;51.40;37.80;;;16.90;99.90;;;;;;5056114;28;20036;-68
2021/06/26 03:07:32;;;;;;;49.83;34.85;;;16.80;99.90;;;;;;5055779;28;20040;-68
2021/06/26 03:09:58;;;;;;;53.53;38.70;;;16.90;99.90;;;;;;5055265;28;20048;-68
2021/06/26 03:12:24;;;;;;;49.08;35.95;;;16.90;99.90;;;;;;5055660;28;20450;-68
2021/06/26 03:14:50;;;;;;;45.35;34.13;;;16.90;99.90;;;;;;5055798;28;20115;-68
2021/06/26 03:17:15;;;;;;;55.72;38.92;;;16.90;99.90;;;;;;5055546;28;20072;-68
2021/06/26 03:19:41;;;;;;;58.47;39.97;;;16.90;99.90;;;;;;5055123;28;20041;-69
2021/06/26 03:22:07;;;;;;;50.80;37.05;;;16.80;99.90;;;;;;5055405;28;20587;-68
2021/06/26 03:24:33;;;;;;;52.22;37.63;;;16.80;99.90;;;;;;5055799;28;20102;-68
2021/06/26 03:26:59;;;;;;;52.17;38.22;;;16.90;99.90;;;;;;5055872;28;20068;-68
2021/06/26 03:29:25;;;;;;;50.50;37.83;;;16.90;99.90;;;;;;5054129;28;20053;-68
2021/06/26 03:31:51;;;;;;;52.63;36.78;;;16.90;99.90;;;;;;5055511;28;20037;-68
2021/06/26 03:34:16;;;;;;;52.47;38.53;;;16.90;99.90;;;;;;5054633;28;20043;-68
2021/06/26 03:36:42;;;;;;;52.83;36.38;;;17.00;99.90;;;;;;5055165;28;20076;-68
2021/06/26 03:39:08;;;;;;;48.63;35.42;;;17.00;99.90;;;;;;5055073;28;20481;-68
2021/06/26 03:41:34;;;;;;;47.00;36.53;;;17.00;99.90;;;;;;5055162;28;20140;-68
2021/06/26 03:44:01;;;;;;;51.05;36.60;;;17.00;99.90;;;;;;5054387;28;20037;-69
2021/06/26 03:46:28;;;;;;;49.95;37.40;;;17.10;99.90;;;;;;5055194;28;20037;-69
2021/06/26 03:48:54;;;;;;;49.13;34.92;;;17.10;99.90;;;;;;5054989;28;20053;-69
2021/06/26 03:51:20;;;;;;;47.88;35.83;;;17.10;99.90;;;;;;5055100;28;20473;-68
2021/06/26 03:53:48;;;;;;;49.97;35.38;;;17.10;99.90;;;;;;5055232;28;20033;-68
2021/06/26 03:56:14;;;;;;;46.65;34.20;;;17.10;99.90;;;;;;5055068;28;20052;-69
2021/06/26 03:58:40;;;;;;;44.97;34.58;;;17.10;99.90;;;;;;5054367;28;20473;-69
2021/06/26 04:01:06;;;;;;;45.75;34.70;;;17.10;99.90;;;;;;5054794;28;20469;-68
2021/06/26 04:03:32;;;;;;;54.92;38.25;;;17.10;99.90;;;;;;5053708;28;20037;-68
2021/06/26 04:05:57;;;;;;;49.08;37.20;;;17.10;99.90;;;;;;5054732;28;20115;-68
2021/06/26 04:08:23;;;;;;;47.33;35.28;;;17.10;99.90;;;;;;5055015;28;20056;-69
2021/06/26 04:11:09;;;;;;;52.17;35.33;;;17.10;99.90;;;;;;5053799;28;20049;-68
2021/06/26 04:13:35;;;;;;;50.03;36.10;;;17.10;99.90;;;;;;5054468;28;20124;-68
2021/06/26 04:16:01;;;;;;;47.83;35.97;;;17.10;99.90;;;;;;5054320;28;20037;-69
2021/06/26 04:18:26;;;;;;;44.72;32.92;;;17.20;99.90;;;;;;5053217;28;20424;-68
2021/06/26 04:20:52;;;;;;;45.92;32.40;;;17.20;99.90;;;;;;5054213;28;20037;-69
2021/06/26 04:23:18;;;;;;;41.70;30.17;;;17.20;99.90;;;;;;5054675;28;20041;-69
2021/06/26 04:25:43;;;;;;;43.28;31.52;;;17.20;99.90;;;;;;5054184;28;20041;-68
2021/06/26 04:28:11;;;;;;;43.35;33.47;;;17.20;99.90;;;;;;5053556;28;20041;-69
2021/06/26 04:30:37;;;;;;;43.35;33.38;;;17.30;99.90;;;;;;5053783;28;20045;-69
2021/06/26 04:33:04;;;;;;;44.30;34.50;;;17.30;99.90;;;;;;5054094;28;20037;-69
2021/06/26 04:35:31;;;;;;;44.33;33.75;;;17.30;99.90;;;;;;5054474;28;20041;-69
2021/06/26 04:37:57;;;;;;;44.38;34.80;;;17.30;99.90;;;;;;5054338;28;20053;-69
2021/06/26 04:40:23;;;;;;;49.40;34.83;;;17.30;99.90;;;;;;5053974;28;20276;-69
2021/06/26 04:42:52;;;;;;;45.00;33.53;;;17.30;99.90;;;;;;5054291;28;20064;-69
2021/06/26 04:45:18;;;;;;;43.95;32.60;;;17.40;99.90;;;;;;5053760;28;20037;-69
2021/06/26 04:47:44;;;;;;;44.72;33.33;;;17.40;99.90;;;;;;5054140;28;20040;-69
2021/06/26 04:50:10;;;;;;;49.78;34.65;;;17.50;99.90;;;;;;5053441;28;20037;-69
2021/06/26 04:52:39;;;;;;;49.25;37.15;;;17.50;99.90;;;;;;5054078;28;20063;-69
2021/06/26 04:55:06;;;;;;;57.92;39.47;;;17.50;99.90;;;;;;5053376;28;20044;-68
2021/06/26 04:57:31;;;;;;;52.53;36.55;;;17.50;99.90;;;;;;5035473;28;20433;-68
2021/06/26 04:59:57;;;;;;;51.58;38.13;;;17.60;99.90;;;;;;5053357;28;20037;-69
2021/06/26 05:02:23;;;;;;;51.22;38.42;;;17.50;99.90;;;;;;5053637;28;20041;-68
2021/06/26 05:04:48;;;;;;;53.92;37.63;;;17.60;99.90;;;;;;5053594;28;20029;-69
2021/06/26 05:07:14;;;;;;;55.58;40.47;;;17.60;99.90;;;;;;5053650;28;20029;-69
2021/06/26 05:09:40;;;;;;;52.72;38.72;;;17.60;99.90;;;;;;5053306;28;20432;-68
2021/06/26 05:12:06;;;;;;;54.88;39.20;;;17.60;99.90;;;;;;5053746;28;20484;-69
2021/06/26 05:14:32;;;;;;;52.72;38.20;;;17.60;99.90;;;;;;5053402;28;20037;-68
2021/06/26 05:16:58;;;;;;;55.10;39.47;;;17.60;99.90;;;;;;5053494;28;20033;-68
2021/06/26 05:19:23;;;;;;;52.58;39.47;;;17.70;99.90;;;;;;5053099;28;20041;-68
2021/06/26 05:21:49;;;;;;;54.35;40.13;;;17.70;99.90;;;;;;5053499;28;20409;-68
2021/06/26 05:24:15;;;;;;;53.80;39.13;;;17.60;99.90;;;;;;5053263;28;20064;-68
2021/06/26 05:26:41;;;;;;;53.42;39.58;;;17.70;99.90;;;;;;5052079;28;20033;-69
2021/06/26 05:29:07;;;;;;;58.38;42.13;;;17.70;99.90;;;;;;5052879;28;20120;-69
2021/06/26 05:31:34;;;;;;;54.67;39.58;;;17.80;99.90;;;;;;5053060;28;20065;-69
2021/06/26 05:34:00;;;;;;;58.65;40.60;;;17.80;99.90;;;;;;5053824;28;20091;-68
2021/06/26 05:36:26;;;;;;;51.45;37.22;;;17.90;99.90;;;;;;5053544;28;20374;-69
2021/06/26 05:38:51;;;;;;;57.35;38.90;;;17.90;99.90;;;;;;5052104;28;20436;-68
2021/06/26 05:41:17;;;;;;;56.63;40.47;;;18.00;99.90;;;;;;5053087;28;20627;-69
2021/06/26 05:43:43;;;;;;;55.08;40.95;;;18.20;99.90;;;;;;5052435;28;20036;-68
2021/06/26 05:46:10;;;;;;;54.38;39.85;;;18.40;99.90;;;;;;5052967;28;20094;-68
2021/06/26 05:48:36;;;;;;;49.83;37.28;;;18.70;99.90;;;;;;5052716;28;20037;-68
2021/06/26 05:51:02;;;;;;;56.22;38.58;;;18.90;99.90;;;;;;5051740;28;20554;-68
2021/06/26 05:53:28;;;;;;;54.08;38.75;;;19.10;99.90;;;;;;5051877;28;20041;-68
2021/06/26 05:55:56;;;;;;;56.63;36.88;;;19.30;99.90;;;;;;5051891;28;20045;-68
2021/06/26 05:58:24;;;;;;;50.75;37.67;;;19.40;99.90;;;;;;5052989;28;20041;-68
2021/06/26 06:00:50;;;;;;;54.38;36.95;;;19.40;99.90;;;;;;5052650;28;20041;-69
2021/06/26 06:03:16;;;;;;;55.05;37.45;;;19.40;99.90;;;;;;5053194;28;20091;-69
2021/06/26 06:05:42;;;;;;;50.22;36.88;;;19.40;99.90;;;;;;5052875;28;20033;-69
2021/06/26 06:08:07;;;;;;;49.05;36.38;;;19.40;99.90;;;;;;5055678;28;20037;-69
2021/06/26 06:10:33;;;;;;;49.90;35.28;;;19.30;99.90;;;;;;5056619;28;20040;-69
2021/06/26 06:12:59;;;;;;;46.75;34.40;;;19.30;99.90;;;;;;5056842;28;20041;-69
2021/06/26 06:15:25;;;;;;;46.70;34.10;;;19.30;99.90;;;;;;5056848;28;20140;-68
2021/06/26 06:17:50;;;;;;;45.33;34.17;;;19.30;99.90;;;;;;5056815;28;20176;-69
2021/06/26 06:20:16;;;;;;;51.30;36.58;;;19.30;99.90;;;;;;5056382;28;20496;-69
2021/06/26 06:22:42;;;;;;;48.42;34.20;;;19.30;99.90;;;;;;5056002;28;20111;-69
2021/06/26 06:25:12;;;;;;;50.92;34.17;;;19.30;99.90;;;;;;5056638;28;20525;-68
2021/06/26 06:27:41;;;;;;;48.80;35.60;;;19.40;99.90;;;;;;5056713;28;20049;-68
2021/06/26 06:30:09;;;;;;;43.90;32.92;;;19.40;99.90;;;;;;5056142;28;20040;-69
2021/06/26 06:32:35;;;;;;;47.20;31.83;;;19.50;99.90;;;;;;5055595;28;20057;-69
2021/06/26 06:35:01;;;;;;;49.50;35.47;;;19.60;99.90;;;;;;5056491;28;20478;-68
2021/06/26 06:37:27;;;;;;;45.10;33.53;;;19.50;99.90;;;;;;5056328;28;20133;-69
2021/06/26 06:39:53;;;;;;;47.80;34.03;;;19.60;99.90;;;;;;5054881;28;20108;-70
2021/06/26 06:42:18;;;;;;;44.58;34.03;;;19.70;99.90;;;;;;5056409;28;20028;-69
2021/06/26 06:44:44;;;;;;;42.58;31.80;;;19.70;99.90;;;;;;5056718;28;20415;-70
2021/06/26 06:47:10;;;;;;;44.42;32.95;;;19.80;99.90;;;;;;5056388;28;20048;-70
2021/06/26 06:49:35;;;;;;;43.47;31.70;;;19.90;99.90;;;;;;5056061;28;20393;-70
2021/06/26 06:52:01;;;;;;;42.80;32.45;;;20.00;99.90;;;;;;5056948;28;20079;-69
2021/06/26 06:54:30;;;;;;;41.80;31.42;;;20.20;99.90;;;;;;5056317;28;20056;-70
2021/06/26 06:56:55;;;;;;;39.47;30.40;;;20.50;99.90;;;;;;5054987;28;20040;-69
2021/06/26 06:59:21;;;;;;;42.83;31.17;;;20.50;99.90;;;;;;5054388;28;20037;-69
2021/06/26 07:01:47;;;;;;;42.38;31.70;;;20.70;99.90;;;;;;5055813;28;20037;-69
2021/06/26 07:04:12;;;;;;;39.70;30.30;;;21.00;99.90;;;;;;5056037;28;20048;-69
2021/06/26 07:06:38;;;;;;;41.63;30.60;;;21.40;99.90;;;;;;5055843;28;20047;-69
2021/06/26 07:09:04;;;;;;;41.55;30.70;;;21.50;99.90;;;;;;5055388;28;20382;-69
2021/06/26 07:11:30;;;;;;;35.97;28.17;;;21.50;99.70;;;;;;5055903;28;20091;-69
2021/06/26 07:13:55;;;;;;;34.83;28.15;;;21.60;99.50;;;;;;5055724;28;20438;-69
2021/06/26 07:16:21;;;;;;;36.55;27.95;;;21.90;99.40;;;;;;5055733;28;20070;-69
2021/06/26 07:18:47;;;;;;;35.70;27.40;;;22.10;98.90;;;;;;5054576;28;20075;-68
2021/06/26 07:21:12;;;;;;;35.47;26.88;;;22.40;97.90;;;;;;5055580;28;20063;-68
2021/06/26 07:23:38;;;;;;;32.92;26.80;;;22.60;97.80;;;;;;5055427;28;20040;-69
2021/06/26 07:26:04;;;;;;;32.28;26.35;;;22.80;97.20;;;;;;5055548;28;20052;-69
2021/06/26 07:28:29;;;;;;;36.88;28.55;;;23.10;97.20;;;;;;5055403;28;20041;-69
2021/06/26 07:30:55;;;;;;;27.45;23.35;;;23.00;96.40;;;;;;5055255;28;20115;-69
2021/06/26 07:33:21;;;;;;;28.83;24.30;;;23.00;95.70;;;;;;5055652;28;20041;-69
2021/06/26 07:35:47;;;;;;;30.13;23.33;;;22.70;95.20;;;;;;5055503;28;20037;-69
2021/06/26 07:38:13;;;;;;;31.27;25.67;;;22.70;95.20;;;;;;5055107;28;20551;-70
2021/06/26 07:40:38;;;;;;;35.45;27.23;;;22.50;95.20;;;;;;5054758;28;20073;-68
2021/06/26 07:43:04;;;;;;;32.38;26.55;;;22.60;94.90;;;;;;5055179;28;20041;-68
2021/06/26 07:45:29;;;;;;;30.45;25.48;;;22.80;95.00;;;;;;5054833;28;20047;-66
2021/06/26 07:47:55;;;;;;;29.35;25.33;;;22.90;94.40;;;;;;5053573;28;20408;-69
2021/06/26 07:50:21;;;;;;;33.03;25.90;;;23.10;93.50;;;;;;5054190;28;20037;-69
2021/06/26 07:52:46;;;;;;;33.55;24.17;;;23.10;92.60;;;;;;5054638;28;20059;-69
2021/06/26 07:55:12;;;;;;;29.73;22.58;;;23.10;92.20;;;;;;5053882;28;20041;-69
2021/06/26 07:57:38;;;;;;;32.03;25.25;;;23.50;91.80;;;;;;5054809;28;20037;-69
2021/06/26 08:00:06;;;;;;;29.30;23.83;;;23.60;91.90;;;;;;5054710;28;20086;-69
2021/06/26 08:02:32;;;;;;;29.60;24.45;;;23.70;91.40;;;;;;5053982;28;20158;-69
2021/06/26 08:04:58;;;;;;;31.20;25.60;;;23.80;91.50;;;;;;5054783;28;20079;-69
2021/06/26 08:07:23;;;;;;;28.30;24.13;;;23.80;91.00;;;;;;5054692;28;20037;-69
2021/06/26 08:09:49;;;;;;;30.83;22.33;;;24.00;90.50;;;;;;5053040;28;20047;-71
2021/06/26 08:12:17;;;;;;;28.13;22.45;;;23.90;90.10;;;;;;5054654;28;20032;-70
2021/06/26 08:14:43;;;;;;;29.23;23.92;;;23.80;89.40;;;;;;5054648;28;20115;-69
2021/06/26 08:17:13;;;;;;;34.35;23.55;;;23.80;91.90;;;;;;5054430;28;20112;-68
2021/06/26 08:19:39;;;;;;;31.58;24.90;;;23.80;91.20;;;;;;5054518;28;20051;-69
2021/06/26 08:22:05;;;;;;;26.73;22.98;;;24.00;90.70;;;;;;5054465;28;20116;-70
2021/06/26 08:24:32;;;;;;;25.75;21.80;;;24.00;91.20;;;;;;5054634;28;20044;-70
2021/06/26 08:26:58;;;;;;;26.95;22.55;;;24.10;89.50;;;;;;5054350;28;20068;-69
2021/06/26 08:29:24;;;;;;;26.58;21.75;;;24.00;88.10;;;;;;5054245;28;20051;-69
2021/06/26 08:31:49;;;;;;;23.98;19.45;;;24.20;89.50;;;;;;5054030;28;20040;-69
2021/06/26 08:34:16;;;;;;;21.20;17.45;;;24.30;87.40;;;;;;5054220;28;20037;-68
2021/06/26 08:36:41;;;;;;;25.48;19.30;;;24.30;85.80;;;;;;5054044;28;20040;-70
2021/06/26 08:39:07;;;;;;;21.95;17.48;;;24.10;85.60;;;;;;5053658;28;20047;-70
2021/06/26 08:41:40;;;;;;;19.95;16.67;;;24.20;86.20;;;;;;5054162;28;20053;-70
2021/06/26 08:44:07;;;;;;;21.80;18.02;;;24.40;86.50;;;;;;5053982;28;20037;-70
2021/06/26 08:46:39;;;;;;;22.30;18.67;;;24.40;88.50;;;;;;5054297;28;20095;-69
2021/06/26 08:49:06;;;;;;;29.88;20.88;;;24.40;87.30;;;;;;5053415;28;20072;-69
2021/06/26 08:51:32;;;;;;;24.55;20.13;;;24.30;87.00;;;;;;5054071;28;20048;-70
2021/06/26 08:53:59;;;;;;;23.52;19.15;;;24.20;87.40;;;;;;5053798;28;20087;-70
2021/06/26 08:56:25;;;;;;;20.35;16.55;;;24.30;88.30;;;;;;5053786;28;20068;-70
2021/06/26 08:58:53;;;;;;;24.55;18.25;;;24.50;90.20;;;;;;5053445;28;20480;-70
2021/06/26 09:01:19;;;;;;;26.90;18.65;;;24.60;90.60;;;;;;5053510;28;20061;-70
2021/06/26 09:03:45;;;;;;;19.75;17.13;;;24.70;90.50;;;;;;5053928;28;20079;-69
2021/06/26 09:06:11;;;;;;;19.40;15.98;;;24.60;88.90;;;;;;5053559;28;20040;-69
2021/06/26 09:08:49;;;;;;;20.67;17.45;;;24.60;88.20;;;;;;5050487;28;20121;-69
2021/06/26 09:11:20;;;;;;;24.25;18.83;;;24.70;83.90;;;;;;5032373;28;20496;-70
2021/06/26 09:13:46;;;;;;;21.70;18.85;;;24.40;86.40;;;;;;5033440;28;20076;-70
2021/06/26 09:16:15;;;;;;;19.65;17.33;;;24.30;87.00;;;;;;5033719;28;20033;-70
2021/06/26 09:18:47;;;;;;;22.48;15.32;;;24.40;88.00;;;;;;5031879;28;20073;-70
2021/06/26 09:21:28;;;;;;;15.13;11.13;;;24.60;86.70;;;;;;5033463;28;20049;-69
2021/06/26 09:24:00;;;;;;;14.80;11.38;;;24.70;85.80;;;;;;5033563;28;20041;-70
2021/06/26 09:26:36;;;;;;;13.68;11.70;;;24.60;84.80;;;;;;5033354;28;20041;-71
2021/06/26 09:29:17;;;;;;;18.52;15.10;;;24.70;85.10;;;;;;5033398;28;20045;-68
2021/06/26 09:31:51;;;;;;;20.88;16.63;;;24.30;84.90;;;;;;5033189;28;20046;-69
2021/06/26 09:34:18;;;;;;;17.88;14.57;;;24.40;87.30;;;;;;5033837;28;20117;-70
2021/06/26 09:36:43;;;;;;;18.50;13.70;;;24.40;86.50;;;;;;5033545;28;20155;-70
2021/06/26 09:39:11;;;;;;;17.38;13.15;;;24.60;88.30;;;;;;5032790;28;20041;-70
2021/06/26 09:41:39;;;;;;;15.15;13.05;;;24.70;88.20;;;;;;5033258;28;20041;-70
2021/06/26 09:44:13;;;;;;;14.82;12.00;;;24.60;85.10;;;;;;5039927;28;20048;-70
2021/06/26 09:46:52;;;;;;;11.68;10.32;;;24.60;84.50;;;;;;5040321;28;20068;-70
2021/06/26 09:49:28;;;;;;;11.45;9.48;;;24.30;83.50;;;;;;5039481;28;20068;-69
2021/06/26 09:52:02;;;;;;;11.73;8.82;;;24.40;84.50;;;;;;5039732;28;20041;-69
2021/06/26 09:54:29;;;;;;;12.77;8.98;;;24.20;84.70;;;;;;5039764;28;20498;-69
2021/06/26 09:56:55;;;;;;;12.40;9.93;;;24.30;86.00;;;;;;5039638;28;20474;-70
2021/06/26 09:59:30;;;;;;;13.23;10.20;;;24.50;87.50;;;;;;5039263;28;20116;-70
2021/06/26 10:01:58;;;;;;;13.43;10.95;;;24.40;86.00;;;;;;5039561;28;20045;-70
2021/06/26 10:04:24;;;;;;;13.95;11.77;;;24.60;89.00;;;;;;5039642;28;20045;-70
2021/06/26 10:06:52;;;;;;;14.15;11.63;;;24.70;87.90;;;;;;5040010;28;20379;-70
2021/06/26 10:09:18;;;;;;;14.55;11.90;;;24.90;86.80;;;;;;5039339;28;20508;-70
2021/06/26 10:11:46;;;;;;;14.55;11.55;;;25.00;86.90;;;;;;5038290;28;20053;-70
2021/06/26 10:14:12;;;;;;;13.27;11.52;;;25.20;87.30;;;;;;5039593;28;20072;-70
2021/06/26 10:16:39;;;;;;;10.10;8.80;;;25.30;87.60;;;;;;5039501;28;20072;-70
2021/06/26 10:19:07;;;;;;;12.45;10.10;;;25.40;87.90;;;;;;5039009;28;20037;-70
2021/06/26 10:21:34;;;;;;;12.60;10.00;;;25.60;88.10;;;;;;5039567;28;20045;-70
2021/06/26 10:24:02;;;;;;;12.15;10.20;;;25.50;86.50;;;;;;5039370;28;20485;-70
2021/06/26 10:26:34;;;;;;;11.02;9.18;;;25.30;84.40;;;;;;5039402;28;20092;-70
2021/06/26 10:29:00;;;;;;;8.40;7.45;;;25.30;83.70;;;;;;5039007;28;20049;-69
2021/06/26 10:31:34;;;;;;;9.68;6.82;;;25.40;80.90;;;;;;5039258;28;20037;-69
2021/06/26 10:34:17;;;;;;;7.20;4.93;;;25.30;82.30;;;;;;5039682;28;20037;-69
2021/06/26 10:36:51;;;;;;;6.40;4.90;;;25.20;82.80;;;;;;5039730;28;20041;-69
2021/06/26 10:39:20;;;;;;;5.22;3.88;;;25.40;83.10;;;;;;5039079;28;20555;-69
2021/06/26 10:42:01;;;;;;;7.75;2.90;;;25.20;81.10;;;;;;5039592;28;20076;-69
2021/06/26 10:44:38;;;;;;;4.05;3.42;;;25.00;79.40;;;;;;5038833;28;20045;-69
2021/06/26 10:47:03;;;;;;;2.45;2.10;;;24.90;79.10;;;;;;5039926;28;20092;-69
2021/06/26 10:49:29;;;;;;;3.15;2.50;;;24.70;80.30;;;;;;5038986;28;20041;-69
2021/06/26 10:52:16;;;;;;;3.70;2.70;;;24.50;80.40;;;;;;5039113;28;20551;-69
2021/06/26 10:54:57;;;;;;;5.72;4.95;;;24.70;82.80;;;;;;5036563;28;20056;-69
2021/06/26 10:57:24;;;;;;;5.78;4.28;;;24.80;84.50;;;;;;5036122;28;20037;-69
2021/06/26 10:59:58;;;;;;;7.35;4.68;;;24.70;82.00;;;;;;5034585;28;20060;-69
2021/06/26 11:02:23;;;;;;;5.97;4.53;;;24.60;81.60;;;;;;5036361;28;20088;-69
2021/06/26 11:04:49;;;;;;;5.65;4.75;;;24.70;82.20;;;;;;5036044;28;20033;-69
2021/06/26 11:07:16;;;;;;;6.80;4.53;;;24.60;81.50;;;;;;5035952;28;20037;-69
2021/06/26 11:09:47;;;;;;;7.50;4.45;;;24.70;82.30;;;;;;5035833;28;20037;-69
2021/06/26 11:12:20;;;;;;;6.95;5.05;;;24.90;84.20;;;;;;5035910;28;20116;-69
2021/06/26 11:14:53;;;;;;;5.97;4.80;;;25.00;84.50;;;;;;5035848;28;20065;-69
2021/06/26 11:17:22;;;;;;;4.80;4.25;;;25.10;88.30;;;;;;5035618;28;20072;-69
2021/06/26 11:19:48;;;;;;;6.13;3.65;;;25.00;88.30;;;;;;5035296;28;20029;-69
2021/06/26 11:22:14;;;;;;;4.20;2.88;;;25.00;88.40;;;;;;5035614;28;20049;-69
2021/06/26 11:24:45;;;;;;;3.95;2.63;;;25.00;88.50;;;;;;5035673;28;20068;-69
2021/06/26 11:27:19;;;;;;;6.97;6.10;;;25.10;85.90;;;;;;5035535;28;20064;-69
2021/06/26 11:29:48;;;;;;;4.82;4.00;;;25.20;81.50;;;;;;5035071;28;20109;-69
2021/06/26 11:32:19;;;;;;;4.80;3.40;;;25.20;83.60;;;;;;5035526;28;20088;-69
2021/06/26 11:35:15;;;;;;;4.57;3.45;;;25.00;83.70;;;;;;5035782;28;20048;-69
2021/06/26 11:37:48;;;;;;;3.10;2.50;;;25.10;83.50;;;;;;5030827;28;20486;-69
2021/06/26 11:40:14;;;;;;;5.95;3.13;;;25.10;84.10;;;;;;5035169;28;20390;-69
2021/06/26 11:42:51;;;;;;;3.50;3.20;;;25.00;83.80;;;;;;5035607;28;20462;-69
2021/06/26 11:45:19;;;;;;;2.40;2.17;;;25.10;81.10;;;;;;5035115;28;20033;-69
2021/06/26 11:47:45;;;;;;;4.55;2.50;;;24.90;81.60;;;;;;5035686;28;20045;-69
2021/06/26 11:50:19;;;;;;;3.15;1.63;;;24.90;84.40;;;;;;5034869;28;20452;-69
2021/06/26 11:52:45;;;;;;;3.95;2.30;;;24.90;79.80;;;;;;5035266;28;20038;-69
2021/06/26 11:55:12;;;;;;;2.25;1.95;;;24.80;79.30;;;;;;5035316;28;20087;-69
2021/06/26 11:57:38;;;;;;;3.17;2.30;;;24.70;79.40;;;;;;5034120;28;20049;-69
2021/06/26 12:00:05;;;;;;;2.88;2.03;;;24.50;82.00;;;;;;5033659;28;20540;-69
2021/06/26 12:02:34;;;;;;;2.10;1.88;;;24.40;81.10;;;;;;5034882;28;20030;-69
2021/06/26 12:05:01;;;;;;;2.20;1.83;;;24.40;80.60;;;;;;5034317;28;20044;-69
2021/06/26 12:07:34;;;;;;;2.25;1.75;;;24.60;83.10;;;;;;5035318;28;20107;-68
2021/06/26 12:10:01;;;;;;;2.75;1.95;;;24.60;81.00;;;;;;5034843;28;20072;-68
2021/06/26 12:12:26;;;;;;;4.25;2.00;;;24.70;80.60;;;;;;5034830;28;20069;-69
2021/06/26 12:14:52;;;;;;;3.50;2.53;;;24.70;87.30;;;;;;5034962;28;20604;-68
2021/06/26 12:17:19;;;;;;;6.95;6.25;;;24.70;85.30;;;;;;5017271;28;20037;-68
2021/06/26 12:19:45;;;;;;;7.68;5.55;;;24.70;83.40;;;;;;5033018;28;20454;-68
2021/06/26 12:22:20;;;;;;;9.15;6.93;;;24.70;83.70;;;;;;5034910;28;20095;-69
2021/06/26 12:24:46;;;;;;;6.40;5.38;;;24.60;86.00;;;;;;5034829;28;20037;-70
2021/06/26 12:27:22;;;;;;;2.90;2.50;;;24.50;84.40;;;;;;5034424;28;20042;-69
2021/06/26 12:29:59;;;;;;;2.75;2.05;;;24.50;81.30;;;;;;5034144;28;20084;-68
2021/06/26 12:32:28;;;;;;;2.65;2.22;;;24.50;80.40;;;;;;5034467;28;20041;-69